createdAt,value
2023-02-06T00:01:50.919Z,80.63
2023-02-06T00:04:19.434Z,79.76
2023-02-06T00:06:47.805Z,79.85
2023-02-06T00:09:16.085Z,79.18
2023-02-06T00:11:44.550Z,78.65
2023-02-06T00:14:13.009Z,80.39
2023-02-06T00:16:41.604Z,80.58
2023-02-06T00:19:10.109Z,79.64
2023-02-06T00:21:38.216Z,79.47
2023-02-06T00:24:07.151Z,79.26
2023-02-06T00:26:35.733Z,79.35
2023-02-06T00:29:04.193Z,79.39
2023-02-06T00:31:32.565Z,79.84
2023-02-06T00:34:01.224Z,79.75
2023-02-06T00:36:29.789Z,79.74
2023-02-06T00:38:58.016Z,81.00
2023-02-06T00:41:26.500Z,82.08
2023-02-06T00:43:54.820Z,82.36
2023-02-06T00:46:25.233Z,83.09
2023-02-06T00:48:53.735Z,83.80
2023-02-06T00:51:21.983Z,83.46
2023-02-06T00:53:51.272Z,83.11
2023-02-06T00:56:20.574Z,80.26
2023-02-06T00:58:48.833Z,79.48
2023-02-06T01:01:18.096Z,80.55
2023-02-06T01:03:47.097Z,82.75
2023-02-06T01:06:18.182Z,84.92
2023-02-06T01:08:47.744Z,83.56
2023-02-06T01:11:20.370Z,82.53
2023-02-06T01:13:49.426Z,82.31
2023-02-06T01:16:23.660Z,82.80
2023-02-06T01:18:55.078Z,83.24
2023-02-06T01:21:24.792Z,82.94
2023-02-06T01:23:54.461Z,82.11
2023-02-06T01:26:26.993Z,81.52
2023-02-06T01:28:56.183Z,83.18
2023-02-06T01:31:28.244Z,84.09
2023-02-06T01:33:58.074Z,84.49
2023-02-06T01:36:27.300Z,82.97
2023-02-06T01:38:57.623Z,81.12
2023-02-06T01:41:25.799Z,79.80
2023-02-06T01:44:13.249Z,79.26
2023-02-06T01:46:47.472Z,77.59
2023-02-06T01:49:24.839Z,78.12
2023-02-06T01:51:57.945Z,78.27
2023-02-06T01:54:27.172Z,79.53
2023-02-06T01:57:01.027Z,79.98
2023-02-06T01:59:29.965Z,79.21
2023-02-06T02:01:58.326Z,80.06
2023-02-06T02:04:31.358Z,82.36
2023-02-06T02:07:17.869Z,83.88
2023-02-06T02:09:47.018Z,83.89
2023-02-06T02:12:15.721Z,82.65
2023-02-06T02:14:45.889Z,83.63
2023-02-06T02:17:40.591Z,82.01
2023-02-06T02:20:20.807Z,81.38
2023-02-06T02:23:16.490Z,82.49
2023-02-06T02:26:24.624Z,81.34
2023-02-06T02:29:12.211Z,79.31
2023-02-06T02:32:21.294Z,78.07
2023-02-06T02:35:17.031Z,77.14
2023-02-06T02:38:00.487Z,75.37
2023-02-06T02:40:38.198Z,75.01
2023-02-06T02:43:45.210Z,73.74
2023-02-06T02:46:16.963Z,74.29
2023-02-06T02:48:49.019Z,76.04
2023-02-06T02:51:18.218Z,77.55
2023-02-06T02:53:46.656Z,76.79
2023-02-06T02:56:24.193Z,77.54
2023-02-06T02:59:28.978Z,76.53
2023-02-06T03:02:08.400Z,77.22
2023-02-06T03:05:02.407Z,76.58
2023-02-06T03:07:45.700Z,77.38
2023-02-06T03:10:43.831Z,78.68
2023-02-06T03:13:37.409Z,79.07
2023-02-06T03:16:26.722Z,75.51
2023-02-06T03:19:12.061Z,75.16
2023-02-06T03:21:42.941Z,73.41
2023-02-06T03:24:15.691Z,73.87
2023-02-06T03:26:45.885Z,73.67
2023-02-06T03:29:16.744Z,73.18
2023-02-06T03:31:55.119Z,73.84
2023-02-06T03:34:35.349Z,73.21
2023-02-06T03:37:04.279Z,72.50
2023-02-06T03:39:33.195Z,73.91
2023-02-06T03:42:03.690Z,75.23
2023-02-06T03:44:37.414Z,76.50
2023-02-06T03:47:08.837Z,78.66
2023-02-06T03:49:41.339Z,79.03
2023-02-06T03:52:14.010Z,79.65
2023-02-06T03:54:48.959Z,81.27
2023-02-06T03:57:19.554Z,80.31
2023-02-06T03:59:48.374Z,80.34
2023-02-06T04:02:18.058Z,79.75
2023-02-06T04:04:46.608Z,79.59
2023-02-06T04:07:30.596Z,80.69
2023-02-06T04:09:59.364Z,81.90
2023-02-06T04:12:27.599Z,81.73
2023-02-06T04:14:55.825Z,81.95
2023-02-06T04:17:40.988Z,80.19
2023-02-06T04:20:13.450Z,77.77
2023-02-06T04:22:42.832Z,79.03
2023-02-06T04:25:11.697Z,76.93
2023-02-06T04:27:39.874Z,80.93
2023-02-06T04:30:09.463Z,82.74
2023-02-06T04:32:37.565Z,82.05
2023-02-06T04:35:05.858Z,82.78
2023-02-06T04:37:34.508Z,82.85
2023-02-06T04:40:04.264Z,83.53
2023-02-06T04:42:32.619Z,83.83
2023-02-06T04:45:01.041Z,83.65
2023-02-06T04:47:29.209Z,83.37
2023-02-06T04:49:57.454Z,82.78
2023-02-06T04:52:25.951Z,82.07
2023-02-06T04:54:53.976Z,80.94
2023-02-06T04:57:22.299Z,80.64
2023-02-06T04:59:50.732Z,81.58
2023-02-06T05:02:18.933Z,82.72
2023-02-06T05:04:47.047Z,83.50
2023-02-06T05:07:15.483Z,83.43
2023-02-06T05:09:44.125Z,85.19
2023-02-06T05:12:14.257Z,85.26
2023-02-06T05:14:42.820Z,85.93
2023-02-06T05:17:10.886Z,85.28
2023-02-06T05:19:39.236Z,84.53
2023-02-06T05:22:07.668Z,84.41
2023-02-06T05:24:35.835Z,84.81
2023-02-06T05:27:04.205Z,85.64
2023-02-06T05:29:32.771Z,84.89
2023-02-06T05:32:01.018Z,84.42
2023-02-06T05:34:29.315Z,84.89
2023-02-06T05:36:57.735Z,85.61
2023-02-06T05:39:25.907Z,85.99
2023-02-06T05:41:54.107Z,85.83
2023-02-06T05:44:22.405Z,84.71
2023-02-06T05:46:50.505Z,82.49
2023-02-06T05:49:18.668Z,81.04
2023-02-06T05:51:47.056Z,78.68
2023-02-06T05:54:17.077Z,78.31
2023-02-06T05:56:45.397Z,78.02
2023-02-06T05:59:13.904Z,77.68
2023-02-06T06:01:42.044Z,78.78
2023-02-06T06:04:10.888Z,78.12
2023-02-06T06:06:39.239Z,77.05
2023-02-06T06:09:07.379Z,78.04
2023-02-06T06:11:35.984Z,77.24
2023-02-06T06:14:05.172Z,76.53
2023-02-06T06:16:33.730Z,76.18
2023-02-06T06:19:02.210Z,76.95
2023-02-06T06:21:30.803Z,78.60
2023-02-06T06:23:58.964Z,80.36
2023-02-06T06:26:27.658Z,79.80
2023-02-06T06:28:56.845Z,79.05
2023-02-06T06:31:25.349Z,79.53
2023-02-06T06:33:54.273Z,80.70
2023-02-06T06:36:22.878Z,79.19
2023-02-06T06:38:51.028Z,78.17
2023-02-06T06:41:19.547Z,77.72
2023-02-06T06:43:49.064Z,76.51
2023-02-06T06:46:19.334Z,76.31
2023-02-06T06:48:48.038Z,75.78
2023-02-06T06:51:16.274Z,76.98
2023-02-06T06:53:44.558Z,75.72
2023-02-06T06:56:14.255Z,74.19
2023-02-06T06:58:42.846Z,73.77
2023-02-06T07:01:11.119Z,73.30
2023-02-06T07:03:39.822Z,74.60
2023-02-06T07:06:08.389Z,74.82
2023-02-06T07:08:41.819Z,74.45
2023-02-06T07:11:14.648Z,74.41
2023-02-06T07:13:43.448Z,72.98
2023-02-06T07:16:14.933Z,72.37
2023-02-06T07:18:43.527Z,71.89
2023-02-06T07:21:13.785Z,71.37
2023-02-06T07:23:42.312Z,70.46
2023-02-06T07:26:10.454Z,70.22
2023-02-06T07:28:38.885Z,70.56
2023-02-06T07:31:08.276Z,70.38
2023-02-06T07:33:36.879Z,70.57
2023-02-06T07:36:10.476Z,69.69
2023-02-06T07:38:38.718Z,68.65
2023-02-06T07:41:07.630Z,68.18
2023-02-06T07:43:36.646Z,69.58
2023-02-06T07:46:05.785Z,68.99
2023-02-06T07:48:34.469Z,70.21
2023-02-06T07:51:12.083Z,71.14
2023-02-06T07:53:40.570Z,69.95
2023-02-06T07:56:14.893Z,69.54
2023-02-06T07:58:43.515Z,69.03
2023-02-06T08:01:11.890Z,69.45
2023-02-06T08:03:40.916Z,67.11
2023-02-06T08:06:11.234Z,67.78
2023-02-06T08:08:39.298Z,65.12
2023-02-06T08:11:09.582Z,64.21
2023-02-06T08:13:37.943Z,63.55
2023-02-06T08:16:07.858Z,62.20
2023-02-06T08:18:37.306Z,60.13
2023-02-06T08:21:08.169Z,60.46
2023-02-06T08:23:36.809Z,59.41
2023-02-06T08:26:09.468Z,58.62
2023-02-06T08:28:42.147Z,58.68
2023-02-06T08:31:11.923Z,56.81
2023-02-06T08:33:41.176Z,56.66
2023-02-06T08:36:10.762Z,56.52
2023-02-06T08:38:39.980Z,55.87
2023-02-06T08:41:27.823Z,55.39
2023-02-06T08:43:58.536Z,55.51
2023-02-06T08:46:29.675Z,54.92
2023-02-06T08:49:00.472Z,53.54
2023-02-06T08:51:29.095Z,54.54
2023-02-06T08:53:59.113Z,52.61
2023-02-06T08:56:28.563Z,53.76
2023-02-06T08:58:59.686Z,53.73
2023-02-06T09:01:30.529Z,53.64
2023-02-06T09:04:02.732Z,53.24
2023-02-06T09:06:30.830Z,51.28
2023-02-06T09:08:59.389Z,50.16
2023-02-06T09:11:28.701Z,51.62
2023-02-06T09:13:59.200Z,50.45
2023-02-06T09:16:29.315Z,51.00
2023-02-06T09:19:01.430Z,51.79
2023-02-06T09:21:33.000Z,50.40
2023-02-06T09:24:03.905Z,50.75
2023-02-06T09:26:44.805Z,51.66
2023-02-06T09:29:22.092Z,53.18
2023-02-06T09:31:50.725Z,52.24
2023-02-06T09:34:19.003Z,52.15
2023-02-06T09:36:47.170Z,49.88
2023-02-06T09:39:15.628Z,51.11
2023-02-06T09:41:47.665Z,50.40
2023-02-06T09:44:28.270Z,49.37
2023-02-06T09:47:02.220Z,49.10
2023-02-06T09:50:03.049Z,47.42
2023-02-06T09:53:08.912Z,46.55
2023-02-06T09:55:38.090Z,45.10
2023-02-06T09:58:06.400Z,46.35
2023-02-06T10:00:44.667Z,46.84
2023-02-06T10:03:13.028Z,45.57
2023-02-06T10:05:50.365Z,45.32
2023-02-06T10:08:30.557Z,45.75
2023-02-06T10:11:02.570Z,44.67
2023-02-06T10:13:36.157Z,46.85
2023-02-06T10:16:13.564Z,43.25
2023-02-06T10:18:46.092Z,41.69
2023-02-06T10:21:45.511Z,43.67
2023-02-06T10:24:20.333Z,42.41
2023-02-06T10:26:52.085Z,43.14
2023-02-06T10:29:32.706Z,41.71
2023-02-06T10:32:19.796Z,41.74
2023-02-06T10:35:16.855Z,42.70
2023-02-06T10:38:15.849Z,42.56
2023-02-06T10:41:08.876Z,42.95
2023-02-06T10:44:11.308Z,43.84
2023-02-06T10:46:48.326Z,41.87
2023-02-06T10:49:41.147Z,42.58
2023-02-06T10:52:26.318Z,42.23
2023-02-06T10:54:58.887Z,41.77
2023-02-06T10:57:28.901Z,44.60
2023-02-06T11:00:01.844Z,42.54
2023-02-06T11:03:06.164Z,42.92
2023-02-06T11:05:36.927Z,42.31
2023-02-06T11:08:28.292Z,42.69
2023-02-06T11:10:57.030Z,44.24
2023-02-06T11:13:31.552Z,43.28
2023-02-06T11:16:13.031Z,45.63
2023-02-06T11:18:45.388Z,43.42
2023-02-06T11:21:16.033Z,42.72
2023-02-06T11:23:44.456Z,45.95
2023-02-06T11:26:22.363Z,45.22
2023-02-06T11:28:55.732Z,42.46
2023-02-06T11:31:46.952Z,43.08
2023-02-06T11:34:36.181Z,43.33
2023-02-06T11:37:25.793Z,45.49
2023-02-06T11:39:54.628Z,44.95
2023-02-06T11:42:28.516Z,46.69
2023-02-06T11:44:56.891Z,45.60
2023-02-06T11:47:38.093Z,45.82
2023-02-06T11:50:23.438Z,47.48
2023-02-06T11:52:59.433Z,45.87
2023-02-06T11:55:30.752Z,47.00
2023-02-06T11:58:22.519Z,46.02
2023-02-06T12:00:56.636Z,46.61
2023-02-06T12:03:35.441Z,46.89
2023-02-06T12:06:10.190Z,45.07
2023-02-06T12:08:47.067Z,47.46
2023-02-06T12:11:34.887Z,46.62
2023-02-06T12:14:10.329Z,46.60
2023-02-06T12:16:39.774Z,48.90
2023-02-06T12:19:21.441Z,47.73
2023-02-06T12:22:02.247Z,46.89
2023-02-06T12:24:36.524Z,48.68
2023-02-06T12:27:18.397Z,48.96
2023-02-06T12:30:09.024Z,48.65
2023-02-06T12:32:50.177Z,49.09
2023-02-06T12:35:29.024Z,49.04
2023-02-06T12:38:05.089Z,48.10
2023-02-06T12:40:59.043Z,48.51
2023-02-06T12:43:29.523Z,50.24
2023-02-06T12:46:08.307Z,48.66
2023-02-06T12:48:45.902Z,48.18
2023-02-06T12:51:56.241Z,48.95
2023-02-06T12:54:30.152Z,48.95
2023-02-06T12:57:26.538Z,48.03
2023-02-06T13:00:09.730Z,49.02
2023-02-06T13:02:51.261Z,49.00
2023-02-06T13:05:27.943Z,49.79
2023-02-06T13:08:05.574Z,50.26
2023-02-06T13:10:34.348Z,50.10
2023-02-06T13:13:03.612Z,50.97
2023-02-06T13:15:39.915Z,51.51
2023-02-06T13:18:56.746Z,51.02
2023-02-06T13:21:24.854Z,51.09
2023-02-06T13:24:03.184Z,51.20
2023-02-06T13:26:51.699Z,49.52
2023-02-06T13:29:29.114Z,50.03
2023-02-06T13:32:12.689Z,50.29
2023-02-06T13:34:46.389Z,50.75
2023-02-06T13:37:38.237Z,51.27
2023-02-06T13:40:12.919Z,50.58
2023-02-06T13:42:56.972Z,49.78
2023-02-06T13:45:27.909Z,51.48
2023-02-06T13:48:23.580Z,50.10
2023-02-06T13:51:20.270Z,50.86
2023-02-06T13:54:12.556Z,51.30
2023-02-06T13:57:18.056Z,51.45
2023-02-06T13:59:54.971Z,51.81
2023-02-06T14:02:45.056Z,50.95
2023-02-06T14:05:18.425Z,52.13
2023-02-06T14:08:04.813Z,52.51
2023-02-06T14:10:42.487Z,52.38
2023-02-06T14:13:24.153Z,53.28
2023-02-06T14:15:55.739Z,53.81
2023-02-06T14:18:46.764Z,54.15
2023-02-06T14:21:30.029Z,53.00
2023-02-06T14:24:07.198Z,53.61
2023-02-06T14:27:13.814Z,52.82
2023-02-06T14:30:00.668Z,53.87
2023-02-06T14:32:38.102Z,54.28
2023-02-06T14:35:42.934Z,54.20
2023-02-06T14:38:49.557Z,55.05
2023-02-06T14:41:18.442Z,54.57
2023-02-06T14:43:49.121Z,54.43
2023-02-06T14:46:19.703Z,55.14
2023-02-06T14:48:51.975Z,55.68
2023-02-06T14:51:39.305Z,55.85
2023-02-06T14:54:35.600Z,56.42
2023-02-06T14:57:13.933Z,57.40
2023-02-06T15:00:02.355Z,56.54
2023-02-06T15:02:37.124Z,56.42
2023-02-06T15:05:06.649Z,57.32
2023-02-06T15:07:38.511Z,57.77
2023-02-06T15:10:14.138Z,57.27
2023-02-06T15:12:52.527Z,57.58
2023-02-06T15:15:27.363Z,57.42
2023-02-06T15:18:03.049Z,57.63
2023-02-06T15:20:40.288Z,57.34
2023-02-06T15:23:32.980Z,57.24
2023-02-06T15:26:10.263Z,57.18
2023-02-06T15:28:40.878Z,57.63
2023-02-06T15:31:19.077Z,58.34
2023-02-06T15:33:51.437Z,58.48
2023-02-06T15:36:28.544Z,57.71
2023-02-06T15:38:58.889Z,57.90
2023-02-06T15:41:30.994Z,56.72
2023-02-06T15:44:03.458Z,57.68
2023-02-06T15:46:33.043Z,58.30
2023-02-06T15:49:01.400Z,58.12
2023-02-06T15:51:40.191Z,58.84
2023-02-06T15:54:24.212Z,58.69
2023-02-06T15:57:28.812Z,58.82
2023-02-06T16:00:00.311Z,58.56
2023-02-06T16:02:37.393Z,58.53
2023-02-06T16:05:07.944Z,59.01
2023-02-06T16:07:36.551Z,59.56
2023-02-06T16:10:23.077Z,59.33
2023-02-06T16:12:52.893Z,60.18
2023-02-06T16:15:36.572Z,59.85
2023-02-06T16:18:24.085Z,60.20
2023-02-06T16:20:52.381Z,60.14
2023-02-06T16:23:24.572Z,59.83
2023-02-06T16:26:15.057Z,59.44
2023-02-06T16:28:55.490Z,58.85
2023-02-06T16:31:26.022Z,58.98
2023-02-06T16:34:03.335Z,59.51
2023-02-06T16:36:33.671Z,58.90
2023-02-06T16:39:04.432Z,59.07
2023-02-06T16:41:36.262Z,59.01
2023-02-06T16:44:13.153Z,59.19
2023-02-06T16:46:42.054Z,59.32
2023-02-06T16:49:19.016Z,59.32
2023-02-06T16:51:49.425Z,59.14
2023-02-06T16:54:23.559Z,58.91
2023-02-06T16:56:53.597Z,59.04
2023-02-06T16:59:22.409Z,59.17
2023-02-06T17:01:50.665Z,59.47
2023-02-06T17:04:19.086Z,59.91
2023-02-06T17:06:48.019Z,60.18
2023-02-06T17:09:18.211Z,59.81
2023-02-06T17:11:46.530Z,59.92
2023-02-06T17:14:15.242Z,59.72
2023-02-06T17:16:43.384Z,60.45
2023-02-06T17:19:15.161Z,60.52
2023-02-06T17:21:43.823Z,60.78
2023-02-06T17:24:12.068Z,60.49
2023-02-06T17:26:40.359Z,60.42
2023-02-06T17:29:11.007Z,60.86
2023-02-06T17:31:42.339Z,61.51
2023-02-06T17:34:11.092Z,62.35
2023-02-06T17:36:40.813Z,62.20
2023-02-06T17:39:12.623Z,62.08
2023-02-06T17:41:41.172Z,63.54
2023-02-06T17:44:09.331Z,63.03
2023-02-06T17:46:38.777Z,63.46
2023-02-06T17:49:07.358Z,64.04
2023-02-06T17:51:35.528Z,65.07
2023-02-06T17:54:06.248Z,65.09
2023-02-06T17:56:37.342Z,65.44
2023-02-06T17:59:06.156Z,66.08
2023-02-06T18:01:35.222Z,66.13
2023-02-06T18:04:04.077Z,67.45
2023-02-06T18:06:36.448Z,69.93
2023-02-06T18:09:06.252Z,72.12
2023-02-06T18:11:35.778Z,73.68
2023-02-06T18:14:05.180Z,74.34
2023-02-06T18:16:34.591Z,75.93
2023-02-06T18:19:03.438Z,76.48
2023-02-06T18:21:31.939Z,76.68
2023-02-06T18:24:01.219Z,76.32
2023-02-06T18:26:29.767Z,75.42
2023-02-06T18:28:58.908Z,73.98
2023-02-06T18:31:31.272Z,73.29
2023-02-06T18:34:00.432Z,73.10
2023-02-06T18:36:30.087Z,73.58
2023-02-06T18:38:58.729Z,73.03
2023-02-06T18:41:46.077Z,73.82
2023-02-06T18:44:15.397Z,74.34
2023-02-06T18:46:44.094Z,74.24
2023-02-06T18:49:13.065Z,74.55
2023-02-06T18:51:42.348Z,76.01
2023-02-06T18:54:11.260Z,76.74
2023-02-06T18:56:40.220Z,77.27
2023-02-06T18:59:08.918Z,77.76
2023-02-06T19:01:37.614Z,77.18
2023-02-06T19:04:06.530Z,76.12
2023-02-06T19:06:36.662Z,76.16
2023-02-06T19:09:07.252Z,76.06
2023-02-06T19:11:41.098Z,74.66
2023-02-06T19:14:15.236Z,74.19
2023-02-06T19:16:47.489Z,73.39
2023-02-06T19:19:18.005Z,74.19
2023-02-06T19:21:49.044Z,76.48
2023-02-06T19:24:18.900Z,77.36
2023-02-06T19:26:47.649Z,77.00
2023-02-06T19:29:34.386Z,77.08
2023-02-06T19:32:06.853Z,77.36
2023-02-06T19:34:38.516Z,77.08
2023-02-06T19:37:09.608Z,75.95
2023-02-06T19:39:40.465Z,75.70
2023-02-06T19:42:11.014Z,75.08
2023-02-06T19:44:39.616Z,73.96
2023-02-06T19:47:08.202Z,75.13
2023-02-06T19:49:37.890Z,76.54
2023-02-06T19:52:06.375Z,76.88
2023-02-06T19:54:34.948Z,76.68
2023-02-06T19:57:03.686Z,77.20
2023-02-06T19:59:32.396Z,77.89
2023-02-06T20:02:02.786Z,78.24
2023-02-06T20:04:36.598Z,77.51
2023-02-06T20:07:05.192Z,79.83
2023-02-06T20:09:33.656Z,80.03
2023-02-06T20:12:02.452Z,80.18
2023-02-06T20:14:31.600Z,79.73
2023-02-06T20:17:00.595Z,79.93
2023-02-06T20:19:29.896Z,79.43
2023-02-06T20:22:00.478Z,81.28
2023-02-06T20:24:32.518Z,80.85
2023-02-06T20:27:06.120Z,80.31
2023-02-06T20:29:40.179Z,81.96
2023-02-06T20:32:11.330Z,80.83
2023-02-06T20:34:40.226Z,81.96
2023-02-06T20:37:09.940Z,83.26
2023-02-06T20:39:40.323Z,82.76
2023-02-06T20:42:09.464Z,81.78
2023-02-06T20:44:37.912Z,81.17
2023-02-06T20:47:06.567Z,81.00
2023-02-06T20:49:36.362Z,79.98
2023-02-06T20:52:06.411Z,81.47
2023-02-06T20:54:34.848Z,81.26
2023-02-06T20:57:03.206Z,79.53
2023-02-06T20:59:33.027Z,80.16
2023-02-06T21:02:02.525Z,80.11
2023-02-06T21:04:33.591Z,80.45
2023-02-06T21:07:02.708Z,81.00
2023-02-06T21:09:31.354Z,81.69
2023-02-06T21:12:00.333Z,80.99
2023-02-06T21:14:30.091Z,80.85
2023-02-06T21:16:58.523Z,79.81
2023-02-06T21:19:28.832Z,79.41
2023-02-06T21:21:57.551Z,80.13
2023-02-06T21:24:25.818Z,79.69
2023-02-06T21:26:54.221Z,81.04
2023-02-06T21:29:25.594Z,81.27
2023-02-06T21:32:07.168Z,80.50
2023-02-06T21:34:41.605Z,79.92
2023-02-06T21:37:09.908Z,79.49
2023-02-06T21:39:40.944Z,78.24
2023-02-06T21:42:11.651Z,77.06
2023-02-06T21:44:39.799Z,77.01
2023-02-06T21:47:10.022Z,77.03
2023-02-06T21:49:39.109Z,78.47
2023-02-06T21:52:07.354Z,78.75
2023-02-06T21:54:35.490Z,78.85
2023-02-06T21:57:04.441Z,79.84
2023-02-06T21:59:34.215Z,79.98
2023-02-06T22:02:02.682Z,79.31
2023-02-06T22:04:31.228Z,79.77
2023-02-06T22:06:59.353Z,80.85
2023-02-06T22:09:27.749Z,81.34
2023-02-06T22:11:57.009Z,81.60
2023-02-06T22:14:25.124Z,80.79
2023-02-06T22:16:53.438Z,79.90
2023-02-06T22:19:22.164Z,81.12
2023-02-06T22:21:50.437Z,81.27
2023-02-06T22:24:19.086Z,81.28
2023-02-06T22:26:47.893Z,82.23
2023-02-06T22:29:17.334Z,82.00
2023-02-06T22:31:45.802Z,80.66
2023-02-06T22:34:18.729Z,81.62
2023-02-06T22:36:48.077Z,83.03
2023-02-06T22:39:17.725Z,82.86
2023-02-06T22:41:47.331Z,81.90
2023-02-06T22:44:17.187Z,81.11
2023-02-06T22:46:48.907Z,80.66
2023-02-06T22:49:18.829Z,80.42
2023-02-06T22:51:47.663Z,82.11
2023-02-06T22:54:16.676Z,82.65
2023-02-06T22:56:45.607Z,82.69
2023-02-06T22:59:19.816Z,82.93
2023-02-06T23:01:54.963Z,83.63
2023-02-06T23:04:28.769Z,83.21
2023-02-06T23:06:57.306Z,83.00
2023-02-06T23:09:31.611Z,83.04
2023-02-06T23:12:01.082Z,82.67
2023-02-06T23:14:31.073Z,81.80
2023-02-06T23:17:00.879Z,81.99
2023-02-06T23:19:29.805Z,82.71
2023-02-06T23:21:58.337Z,83.49
2023-02-06T23:24:26.874Z,84.02
2023-02-06T23:26:55.031Z,83.38
2023-02-06T23:29:23.993Z,83.10
2023-02-06T23:31:52.319Z,82.97
2023-02-06T23:34:23.827Z,80.98
2023-02-06T23:36:53.026Z,82.02
2023-02-06T23:39:21.894Z,82.86
2023-02-06T23:41:50.217Z,82.85
2023-02-06T23:44:19.150Z,82.75
2023-02-06T23:46:47.927Z,82.49
2023-02-06T23:49:16.540Z,83.66
2023-02-06T23:51:45.131Z,84.14
2023-02-06T23:54:13.415Z,84.53
2023-02-06T23:56:41.594Z,84.42
2023-02-06T23:59:10.626Z,84.55
